createdAt,value
2018-05-31T00:00:10.871Z,74.9
2018-05-31T00:05:15.342Z,75.1
2018-05-31T00:10:05.825Z,75.1
2018-05-31T00:15:03.484Z,75.1
2018-05-31T00:20:06.115Z,75.2
2018-05-31T00:25:06.178Z,75
2018-05-31T00:30:07.817Z,74.9
2018-05-31T00:35:10.770Z,75
2018-05-31T00:40:10.269Z,74.6
2018-05-31T00:45:08.368Z,74.4
2018-05-31T00:50:05.293Z,74
2018-05-31T00:55:03.422Z,73.8
2018-05-31T01:00:02.761Z,73.8
2018-05-31T01:05:03.636Z,73.9
2018-05-31T01:10:10.509Z,74.2
2018-05-31T01:15:08.927Z,74.4
2018-05-31T01:20:05.441Z,74.6
2018-05-31T01:25:03.355Z,74.6
2018-05-31T01:30:10.340Z,75.5
2018-05-31T01:35:08.320Z,75.9
2018-05-31T01:40:10.862Z,76.5
2018-05-31T01:45:10.502Z,76.7
2018-05-31T01:50:02.977Z,76.6
2018-05-31T01:55:13.497Z,77.3
2018-05-31T02:00:05.530Z,77.3
2018-05-31T02:05:05.909Z,77.5
2018-05-31T02:10:08.399Z,77.4
2018-05-31T02:15:03.282Z,77.5
2018-05-31T02:20:05.452Z,77.3
2018-05-31T02:25:05.804Z,77.4
2018-05-31T02:30:08.354Z,77.7
2018-05-31T02:35:02.775Z,77.7
2018-05-31T02:40:05.391Z,77.9
2018-05-31T02:45:03.170Z,77.9
2018-05-31T02:50:07.886Z,78
2018-05-31T02:55:08.281Z,78
2018-05-31T03:00:05.277Z,78.3
2018-05-31T03:05:08.204Z,78.6
2018-05-31T03:10:10.838Z,79.4
2018-05-31T03:15:02.646Z,79.4
2018-05-31T03:20:08.231Z,79.5
2018-05-31T03:25:02.879Z,79.5
2018-05-31T03:30:03.251Z,79.7
2018-05-31T03:35:07.750Z,79.6
2018-05-31T03:40:10.248Z,79.7
2018-05-31T03:45:03.140Z,79.7
2018-05-31T03:50:02.635Z,79.7
2018-05-31T03:55:05.634Z,79.6
2018-05-31T04:00:03.088Z,79.6
2018-05-31T04:05:06.060Z,79.4
2018-05-31T04:10:05.568Z,79.9
2018-05-31T04:15:10.179Z,80.1
2018-05-31T04:20:30.880Z,79.9
2018-05-31T04:25:06.362Z,79.6
2018-05-31T04:30:05.898Z,79.4
2018-05-31T04:35:05.234Z,79.2
2018-05-31T04:40:05.699Z,79.2
2018-05-31T04:45:02.624Z,79.2
2018-05-31T04:50:05.640Z,78.6
2018-05-31T04:55:21.216Z,78.4
2018-05-31T05:00:02.659Z,78.4
2018-05-31T05:05:08.134Z,77.8
2018-05-31T05:10:03.024Z,77.7
2018-05-31T05:15:08.602Z,77.1
2018-05-31T05:20:08.285Z,77.1
2018-05-31T05:25:05.184Z,76.8
2018-05-31T05:30:10.316Z,76.5
2018-05-31T05:35:03.101Z,76.4
2018-05-31T05:40:03.359Z,76.4
2018-05-31T05:45:03.680Z,75.2
2018-05-31T05:50:18.293Z,74.5
2018-05-31T05:55:06.078Z,73.9
2018-05-31T06:00:05.738Z,73.5
2018-05-31T06:05:10.636Z,72.5
2018-05-31T06:10:06.192Z,72.3
2018-05-31T06:15:08.268Z,71.2
2018-05-31T06:20:07.820Z,70.2
2018-05-31T06:25:34.124Z,69
2018-05-31T06:30:08.863Z,68.5
2018-05-31T06:35:03.117Z,68.6
2018-05-31T06:40:02.944Z,68.6
2018-05-31T06:45:05.972Z,66.6
2018-05-31T06:50:13.436Z,66.7
2018-05-31T06:55:05.394Z,63.7
2018-05-31T07:00:10.372Z,63.9
2018-05-31T07:05:03.204Z,63.9
2018-05-31T07:10:08.186Z,63.8
2018-05-31T07:15:06.076Z,62.2
2018-05-31T07:20:11.172Z,62.3
2018-05-31T07:25:05.515Z,61.6
2018-05-31T07:30:02.907Z,61.6
2018-05-31T07:35:03.303Z,60.7
2018-05-31T07:40:06.033Z,60.5
2018-05-31T07:45:05.530Z,60.1
2018-05-31T07:50:05.458Z,59.1
2018-05-31T07:55:05.846Z,58.3
2018-05-31T08:00:10.920Z,58.6
2018-05-31T08:05:05.319Z,57.3
2018-05-31T08:10:03.160Z,57.3
2018-05-31T08:15:07.852Z,56.2
2018-05-31T08:20:05.892Z,55.6
2018-05-31T08:25:05.319Z,55
2018-05-31T08:30:02.699Z,55.1
2018-05-31T08:35:03.205Z,54.7
2018-05-31T08:40:03.112Z,53.5
2018-05-31T08:45:07.626Z,53.2
2018-05-31T08:50:13.213Z,52.5
2018-05-31T08:55:08.582Z,52.4
2018-05-31T09:00:05.589Z,51.7
2018-05-31T09:05:03.436Z,51.6
2018-05-31T09:10:08.451Z,51.6
2018-05-31T09:15:02.905Z,51.6
2018-05-31T09:20:03.464Z,51.2
2018-05-31T09:25:05.557Z,51
2018-05-31T09:30:03.002Z,50.9
2018-05-31T09:35:03.573Z,50.4
2018-05-31T09:40:06.120Z,49.1
2018-05-31T09:45:03.083Z,49
2018-05-31T09:50:02.636Z,49
2018-05-31T09:55:08.207Z,48.3
2018-05-31T10:00:10.255Z,47.4
2018-05-31T10:05:03.219Z,47.4
2018-05-31T10:10:08.206Z,46.3
2018-05-31T10:15:20.275Z,46.4
2018-05-31T10:20:02.799Z,46.3
2018-05-31T10:25:08.325Z,45.5
2018-05-31T10:30:05.493Z,45
2018-05-31T10:35:03.388Z,44.9
2018-05-31T10:40:03.382Z,45
2018-05-31T10:45:02.914Z,43.8
2018-05-31T10:50:07.786Z,43.6
2018-05-31T10:55:05.748Z,42.5
2018-05-31T11:00:15.816Z,42.7
2018-05-31T11:05:07.723Z,42.1
2018-05-31T11:10:02.581Z,42.1
2018-05-31T11:15:03.434Z,41.6
2018-05-31T11:20:02.975Z,41
2018-05-31T11:25:03.470Z,41.1
2018-05-31T11:30:02.913Z,40.1
2018-05-31T11:35:03.390Z,40.2
2018-05-31T11:40:03.308Z,40.2
2018-05-31T11:45:10.384Z,40.4
2018-05-31T11:50:18.046Z,40.1
2018-05-31T11:55:03.406Z,40
2018-05-31T12:00:05.541Z,39.2
2018-05-31T12:05:06.051Z,40.3
2018-05-31T12:10:03.257Z,40.3
2018-05-31T12:15:02.839Z,39
2018-05-31T12:20:06.054Z,37.3
2018-05-31T12:25:02.928Z,37.6
2018-05-31T12:30:05.944Z,37.9
2018-05-31T12:35:02.999Z,37.9
2018-05-31T12:40:15.699Z,36.8
2018-05-31T12:45:03.502Z,36.9
2018-05-31T12:50:02.935Z,37.1
2018-05-31T12:55:03.438Z,36.8
2018-05-31T13:00:02.902Z,36.4
2018-05-31T13:05:03.439Z,36.2
2018-05-31T13:10:05.881Z,35.2
2018-05-31T13:15:13.098Z,35.2
2018-05-31T13:20:05.535Z,36.1
2018-05-31T13:25:03.430Z,36
2018-05-31T13:30:02.949Z,36
2018-05-31T13:35:25.402Z,36.7
2018-05-31T13:40:10.862Z,38.5
2018-05-31T13:45:15.451Z,36.3
2018-05-31T13:50:05.459Z,36.1
2018-05-31T13:55:05.986Z,35.4
2018-05-31T14:00:05.997Z,33.8
2018-05-31T14:05:05.634Z,34.9
2018-05-31T14:10:02.692Z,34.8
2018-05-31T14:15:08.226Z,34.8
2018-05-31T14:20:07.850Z,32.1
2018-05-31T14:25:05.843Z,33.4
2018-05-31T14:30:10.939Z,31.7
2018-05-31T14:35:02.933Z,31.6
2018-05-31T14:40:05.509Z,31.9
2018-05-31T14:45:10.200Z,32.1
2018-05-31T14:50:05.359Z,33.1
2018-05-31T14:55:03.229Z,33.1
2018-05-31T15:00:05.255Z,30.9
2018-05-31T15:05:05.897Z,31.8
2018-05-31T15:10:02.826Z,31.8
2018-05-31T15:15:03.447Z,31.8
2018-05-31T15:20:05.585Z,34.5
2018-05-31T15:25:17.799Z,36.1
2018-05-31T15:30:08.312Z,36.6
2018-05-31T15:35:02.811Z,36.7
2018-05-31T15:40:07.810Z,37.1
2018-05-31T15:45:03.300Z,37.1
2018-05-31T15:50:15.473Z,38.5
2018-05-31T15:55:08.337Z,39.2
2018-05-31T16:00:05.344Z,38.5
2018-05-31T16:05:05.969Z,38.9
2018-05-31T16:10:02.976Z,39
2018-05-31T16:15:06.008Z,39.1
2018-05-31T16:20:05.147Z,40.6
2018-05-31T16:25:03.073Z,40.6
2018-05-31T16:30:06.064Z,40.7
2018-05-31T16:35:03.184Z,40.6
2018-05-31T16:40:03.095Z,40.6
2018-05-31T16:45:10.211Z,43.4
2018-05-31T16:50:02.657Z,43.4
2018-05-31T16:55:03.213Z,43.8
2018-05-31T17:00:07.733Z,42.4
2018-05-31T17:05:03.159Z,42.4
2018-05-31T17:10:03.078Z,42.7
2018-05-31T17:15:03.553Z,43.9
2018-05-31T17:20:08.240Z,43.8
2018-05-31T17:25:07.698Z,43.3
2018-05-31T17:30:05.672Z,43.7
2018-05-31T17:35:15.284Z,43.3
2018-05-31T17:40:05.779Z,42.6
2018-05-31T17:45:30.572Z,42.5
2018-05-31T17:50:05.512Z,42.3
2018-05-31T17:55:03.494Z,42.4
2018-05-31T18:00:10.581Z,42.3
2018-05-31T18:05:10.174Z,42.4
2018-05-31T18:10:05.608Z,42.7
2018-05-31T18:15:10.294Z,48.1
2018-05-31T18:20:07.969Z,48.4
2018-05-31T18:25:03.346Z,48.4
2018-05-31T18:30:02.882Z,49.6
2018-05-31T18:35:05.942Z,49.5
2018-05-31T18:40:05.565Z,45.6
2018-05-31T18:45:21.116Z,49.4
2018-05-31T18:50:08.570Z,49.5
2018-05-31T18:55:10.560Z,48.6
2018-05-31T19:00:15.709Z,47.8
2018-05-31T19:05:03.436Z,47.7
2018-05-31T19:10:08.432Z,47.8
2018-05-31T19:15:05.398Z,48.3
2018-05-31T19:20:08.005Z,47.9
2018-05-31T19:25:03.451Z,47.9
2018-05-31T19:30:05.411Z,49.6
2018-05-31T19:35:05.238Z,49.5
2018-05-31T19:40:03.154Z,49.6
2018-05-31T19:45:05.264Z,50.4
2018-05-31T19:50:02.678Z,50.3
2018-05-31T19:55:03.187Z,50.2
2018-05-31T20:00:02.582Z,50.5
2018-05-31T20:05:05.644Z,50.7
2018-05-31T20:10:08.646Z,50.4
2018-05-31T20:15:03.020Z,50.4
2018-05-31T20:20:08.659Z,50.9
2018-05-31T20:25:05.506Z,51
2018-05-31T20:30:05.513Z,50.7
2018-05-31T20:35:03.363Z,50.7
2018-05-31T20:40:13.483Z,52
2018-05-31T20:45:15.479Z,52.4
2018-05-31T20:50:02.930Z,52.4
2018-05-31T20:55:08.453Z,53.4
2018-05-31T21:00:05.424Z,53.6
2018-05-31T21:05:03.493Z,53.6
2018-05-31T21:10:03.459Z,53.9
2018-05-31T21:15:02.814Z,54.6
2018-05-31T21:20:08.447Z,55.1
2018-05-31T21:25:05.622Z,55.6
2018-05-31T21:30:03.022Z,55.6
2018-05-31T21:35:03.519Z,55.3
2018-05-31T21:40:02.596Z,55.7
2018-05-31T21:45:30.913Z,55.7
2018-05-31T21:50:03.376Z,55.7
2018-05-31T21:55:02.819Z,56.2
2018-05-31T22:00:05.210Z,56.9
2018-05-31T22:05:03.066Z,56.9
2018-05-31T22:10:02.999Z,57.2
2018-05-31T22:15:16.118Z,58.4
2018-05-31T22:20:07.734Z,58.5
2018-05-31T22:25:10.650Z,58.6
2018-05-31T22:30:08.129Z,58.4
2018-05-31T22:35:03.523Z,58.4
2018-05-31T22:40:11.074Z,58.9
2018-05-31T22:45:10.440Z,59.5
2018-05-31T22:50:10.410Z,59.3
2018-05-31T22:55:03.241Z,59.3
2018-05-31T23:00:12.965Z,59.8
2018-05-31T23:05:03.154Z,59.8
2018-05-31T23:10:13.131Z,60.5
2018-05-31T23:15:13.558Z,60.2
2018-05-31T23:20:05.594Z,61.3
2018-05-31T23:25:15.292Z,61.5
2018-05-31T23:30:07.740Z,61.7
2018-05-31T23:35:05.709Z,62.2
2018-05-31T23:40:06.101Z,62.2
2018-05-31T23:45:03.001Z,62.1
2018-05-31T23:50:03.379Z,63.3
2018-05-31T23:55:07.888Z,63.4
